Time;durP1;ratioP1;P1;durP2;ratioP2;P2;SDS_P1;SDS_P2;PMS_P1;PMS_P2;Temp;Humidity;BMP_temperature;BMP_pressure;BME280_temperature;BME280_humidity;BME280_pressure;Samples;Min_cycle;Max_cycle;Signal;HPM_P1;HPM_P2
2021/12/24 00:00:43;;;;;;;6.90;2.87;;;;;;;-11.49;64.64;98430.25;4946737;29;20097;-70
2021/12/24 00:03:12;;;;;;;7.10;2.83;;;;;;;-11.63;64.69;98434.38;4948477;29;20051;-70
2021/12/24 00:05:42;;;;;;;6.37;2.23;;;;;;;-11.48;64.34;98453.00;4947592;29;20055;-70
2021/12/24 00:08:11;;;;;;;4.67;2.17;;;;;;;-11.60;64.90;98452.53;4953426;28;20058;-68
2021/12/24 00:10:39;;;;;;;5.07;2.07;;;;;;;-11.65;65.08;98442.47;4950086;28;20050;-69
2021/12/24 00:13:10;;;;;;;6.22;2.05;;;;;;;-11.61;65.00;98456.97;4949007;28;20146;-69
2021/12/24 00:37:08;;;;;;;5.33;2.00;;;;;;;-11.59;64.77;98444.44;4947137;28;20054;-69
2021/12/24 00:39:48;;;;;;;7.70;2.65;;;;;;;-11.60;64.83;98436.69;4945293;29;20505;-70
2021/12/24 00:42:14;;;;;;;6.73;2.00;;;;;;;-11.49;64.27;98452.19;4956479;28;20548;-69
2021/12/24 00:44:41;;;;;;;8.32;2.83;;;;;;;-11.62;64.76;98444.75;4950539;29;20508;-69
2021/12/24 00:47:07;;;;;;;8.43;2.30;;;;;;;-11.57;64.97;98436.38;4927846;29;20138;-69
2021/12/24 00:49:34;;;;;;;7.13;2.50;;;;;;;-11.55;64.53;98429.09;4949747;28;20509;-69
2021/12/24 00:55:09;;;;;;;7.03;2.30;;;;;;;-11.46;64.51;98445.75;4951100;28;20055;-68
2021/12/24 00:57:37;;;;;;;7.47;2.50;;;;;;;-11.41;64.34;98439.00;4940914;29;20051;-69
2021/12/24 01:00:06;;;;;;;7.20;2.50;;;;;;;-11.33;64.19;98421.47;4949308;29;20070;-69
2021/12/24 01:02:33;;;;;;;6.57;2.23;;;;;;;-11.44;64.42;98410.31;4954309;29;20142;-69
2021/12/24 01:05:03;;;;;;;7.87;2.13;;;;;;;-11.28;64.13;98425.28;4970705;28;20043;-69
2021/12/24 01:07:29;;;;;;;10.10;2.53;;;;;;;-11.16;64.01;98415.22;4953710;29;20142;-69
2021/12/24 01:09:57;;;;;;;11.20;2.90;;;;;;;-11.21;63.81;98404.31;4948074;29;20048;-69
2021/12/24 01:12:24;;;;;;;8.52;2.58;;;;;;;-11.08;63.51;98402.97;4946225;29;20051;-68
2021/12/24 01:14:54;;;;;;;8.52;2.63;;;;;;;-11.19;63.34;98397.03;4970528;28;20085;-70
2021/12/24 01:17:36;;;;;;;10.73;3.00;;;;;;;-11.13;63.54;98395.53;4949226;29;20051;-70
2021/12/24 01:20:11;;;;;;;7.10;2.57;;;;;;;-10.99;63.22;98383.47;4950016;29;20134;-70
2021/12/24 01:23:28;;;;;;;7.90;2.90;;;;;;;-11.18;63.32;98363.56;4952972;28;20087;-69
2021/12/24 01:25:38;;;;;;;5.90;2.10;;;;;;;-11.03;63.33;98375.06;4926843;29;20043;-70
2021/12/24 01:44:27;;;;;;;8.52;2.00;;;;;;;-11.26;63.55;98354.66;4951023;29;20447;-69
2021/12/24 01:46:58;;;;;;;5.70;2.20;;;;;;;-11.10;63.47;98374.06;4952151;29;20468;-69
2021/12/24 01:49:25;;;;;;;10.43;3.13;;;;;;;-11.08;63.25;98368.63;4953116;29;20051;-70
2021/12/24 01:51:51;;;;;;;6.13;2.30;;;;;;;-11.12;63.18;98365.50;4948893;29;20402;-69
2021/12/24 01:54:18;;;;;;;8.25;2.47;;;;;;;-11.23;63.25;98390.47;4940971;28;20043;-70
2021/12/24 01:56:46;;;;;;;9.87;2.73;;;;;;;-11.29;63.57;98378.75;4954027;28;20059;-69
2021/12/24 01:59:13;;;;;;;7.47;2.37;;;;;;;-11.23;63.58;98374.63;4968850;28;20520;-69
2021/12/24 02:01:43;;;;;;;6.85;2.35;;;;;;;-11.35;63.69;98375.97;4954119;29;20504;-69
2021/12/24 02:04:11;;;;;;;6.63;2.50;;;;;;;-11.26;63.50;98364.41;4952411;29;20181;-69
2021/12/24 02:06:38;;;;;;;9.03;2.83;;;;;;;-11.25;63.44;98366.06;4968146;28;20059;-69
2021/12/24 02:09:05;;;;;;;5.40;2.05;;;;;;;-11.16;62.90;98351.00;4953491;28;20054;-68
2021/12/24 02:11:37;;;;;;;5.90;2.22;;;;;;;-11.28;63.16;98351.38;4968033;28;20433;-69
2021/12/24 02:14:19;;;;;;;8.40;2.20;;;;;;;-11.19;63.06;98360.09;4942556;29;20413;-69
2021/12/24 02:17:16;;;;;;;8.47;2.77;;;;;;;-11.16;62.76;98358.94;4946888;29;20055;-69
2021/12/24 02:30:44;;;;;;;8.30;2.37;;;;;;;-11.42;63.17;98350.25;4951511;29;20043;-69
2021/12/24 02:33:14;;;;;;;7.93;2.63;;;;;;;-11.39;63.20;98322.72;4968514;28;20539;-69
2021/12/24 02:35:40;;;;;;;9.53;3.17;;;;;;;-11.49;63.47;98345.81;4967872;28;20048;-69
2021/12/24 02:38:11;;;;;;;7.15;2.42;;;;;;;-11.49;62.94;98348.47;4955218;29;20138;-69
2021/12/24 02:40:38;;;;;;;8.60;2.33;;;;;;;-11.39;62.93;98346.47;4949920;29;20064;-69
2021/12/24 02:43:08;;;;;;;5.43;2.30;;;;;;;-11.54;63.12;98323.41;4949562;29;20043;-69
2021/12/24 02:45:35;;;;;;;6.77;2.70;;;;;;;-11.54;63.35;98341.88;4928474;29;20342;-69
2021/12/24 02:56:05;;;;;;;9.43;2.67;;;;;;;-11.31;62.82;98311.31;4952406;29;20415;-69
2021/12/24 02:58:37;;;;;;;8.55;2.95;;;;;;;-11.35;62.94;98318.75;4947725;29;20520;-69
2021/12/24 03:01:07;;;;;;;7.63;2.83;;;;;;;-11.36;62.51;98311.81;4955209;28;20047;-69
2021/12/24 03:03:37;;;;;;;9.10;3.27;;;;;;;-11.34;63.00;98312.47;4932966;29;20541;-69
2021/12/24 03:06:04;;;;;;;9.90;2.80;;;;;;;-11.35;63.02;98302.91;4951250;29;20095;-69
2021/12/24 03:08:31;;;;;;;12.63;2.72;;;;;;;-11.44;63.04;98296.00;4949518;29;20051;-70
2021/12/24 03:10:58;;;;;;;9.68;2.80;;;;;;;-11.44;63.55;98298.63;4951950;28;20082;-70
2021/12/24 03:13:28;;;;;;;9.88;3.00;;;;;;;-11.40;63.21;98289.38;4968870;28;20074;-70
2021/12/24 03:15:56;;;;;;;9.73;3.03;;;;;;;-11.45;63.38;98304.91;4948897;28;20043;-70
2021/12/24 03:18:27;;;;;;;11.00;3.10;;;;;;;-11.32;63.12;98307.84;4965046;28;20055;-69
2021/12/24 03:21:03;;;;;;;8.40;3.17;;;;;;;-11.34;63.31;98301.06;4964930;28;20082;-69
2021/12/24 03:23:40;;;;;;;9.73;3.20;;;;;;;-11.27;62.99;98305.50;4947546;29;20039;-69
2021/12/24 03:26:08;;;;;;;15.30;3.10;;;;;;;-11.23;63.01;98291.97;4960496;28;20043;-69
2021/12/24 03:28:35;;;;;;;5.27;2.00;;;;;;;-11.22;62.79;98291.00;4949694;29;20048;-68
2021/12/24 03:31:02;;;;;;;10.63;4.43;;;;;;;-11.35;63.71;98281.78;4951925;29;20513;-69
2021/12/24 03:33:28;;;;;;;12.52;4.22;;;;;;;-11.29;63.38;98281.09;4950508;29;20053;-69
2021/12/24 03:35:55;;;;;;;10.65;3.45;;;;;;;-11.20;63.03;98307.47;4951143;29;20055;-69
2021/12/24 03:38:31;;;;;;;11.17;2.90;;;;;;;-11.35;63.09;98288.88;4967641;28;20061;-70
2021/12/24 03:40:58;;;;;;;10.57;3.77;;;;;;;-11.33;63.57;98290.34;4968075;28;20066;-70
2021/12/24 03:43:25;;;;;;;8.75;2.72;;;;;;;-11.30;63.28;98300.56;4940893;29;20074;-70
2021/12/24 03:48:26;;;;;;;9.77;3.70;;;;;;;-11.45;63.86;98281.16;4952736;28;20059;-70
2021/12/24 03:51:05;;;;;;;8.50;3.60;;;;;;;-11.46;63.95;98292.72;4968136;28;20039;-69
2021/12/24 03:56:17;;;;;;;8.57;3.07;;;;;;;-11.36;63.76;98266.13;4965201;28;20767;-69
2021/12/24 03:58:44;;;;;;;10.23;3.20;;;;;;;-11.29;63.81;98259.97;4965540;28;20050;-69
2021/12/24 04:01:37;;;;;;;9.63;3.10;;;;;;;-11.25;63.32;98255.19;4946231;29;20497;-69
2021/12/24 04:04:21;;;;;;;10.03;3.63;;;;;;;-11.33;63.76;98256.06;4948064;29;20535;-69
2021/12/24 04:07:06;;;;;;;10.37;3.33;;;;;;;-11.22;63.39;98264.59;4951697;29;20129;-70
2021/12/24 04:10:02;;;;;;;11.27;3.17;;;;;;;-11.28;63.65;98258.97;4952153;28;20059;-69
2021/12/24 04:12:48;;;;;;;12.27;3.70;;;;;;;-11.26;63.76;98264.09;4949906;29;20079;-70
2021/12/24 04:15:15;;;;;;;9.83;3.17;;;;;;;-11.23;63.53;98253.19;4947386;28;20051;-75
2021/12/24 04:17:44;;;;;;;11.50;3.23;;;;;;;-11.13;63.29;98248.53;4942193;29;20087;-75
2021/12/24 04:25:42;;;;;;;9.97;3.80;;;;;;;-10.94;62.70;98227.97;4947995;29;20503;-69
2021/12/24 04:28:11;;;;;;;10.83;3.70;;;;;;;-10.92;62.78;98238.38;4951864;29;20054;-68
2021/12/24 04:30:47;;;;;;;10.50;3.73;;;;;;;-10.92;62.63;98233.09;4947624;28;20135;-69
2021/12/24 04:33:26;;;;;;;11.57;4.40;;;;;;;-11.02;62.95;98233.28;4952210;29;20404;-69
2021/12/24 04:35:59;;;;;;;11.37;3.87;;;;;;;-10.86;62.62;98235.00;4953338;28;20050;-69
2021/12/24 04:38:34;;;;;;;10.20;3.77;;;;;;;-10.93;62.79;98239.34;4968868;28;20126;-69
2021/12/24 05:03:14;;;;;;;8.73;2.97;;;;;;;-10.84;63.09;98196.88;4943774;28;20458;-69
2021/12/24 05:05:48;;;;;;;11.70;4.20;;;;;;;-10.81;63.08;98198.31;4964446;28;20523;-68
2021/12/24 05:10:41;;;;;;;13.93;3.50;;;;;;;-10.79;63.26;98191.03;4943027;29;20070;-70
2021/12/24 05:13:12;;;;;;;10.07;3.53;;;;;;;-10.81;63.36;98213.38;4967535;28;20051;-69
2021/12/24 05:16:06;;;;;;;7.45;2.60;;;;;;;-10.79;63.28;98204.25;4950529;29;20047;-69
2021/12/24 05:21:33;;;;;;;9.47;3.00;;;;;;;-10.73;63.39;98179.78;4941218;29;20055;-69
2021/12/24 05:22:09;;;;;;;9.30;3.03;;;;;;;-10.85;63.62;98197.88;4956155;29;20062;-69
2021/12/24 05:24:38;;;;;;;10.93;3.53;;;;;;;-10.86;63.96;98183.00;4943570;29;20048;-69
2021/12/24 05:27:04;;;;;;;9.70;3.07;;;;;;;-10.84;63.76;98190.75;4969975;28;20151;-69
2021/12/24 05:29:32;;;;;;;13.60;3.75;;;;;;;-10.85;64.14;98179.38;4956217;28;20133;-69
2021/12/24 05:32:00;;;;;;;8.13;2.75;;;;;;;-10.73;63.98;98192.16;4955595;29;20058;-69
2021/12/24 05:34:27;;;;;;;11.73;3.33;;;;;;;-10.75;63.89;98205.56;4947207;28;20089;-69
2021/12/24 05:36:56;;;;;;;8.53;3.40;;;;;;;-10.71;63.76;98177.78;4970324;28;20142;-69
2021/12/24 05:39:22;;;;;;;10.17;3.20;;;;;;;-10.87;63.95;98178.72;4956028;29;20090;-68
2021/12/24 05:41:51;;;;;;;11.20;3.77;;;;;;;-10.69;63.83;98174.97;4955757;28;20179;-69
2021/12/24 05:44:18;;;;;;;9.27;3.00;;;;;;;-10.73;63.90;98171.03;4941014;29;20055;-69
2021/12/24 05:46:49;;;;;;;9.37;3.20;;;;;;;-10.70;63.66;98184.72;4942756;29;20039;-68
2021/12/24 05:49:34;;;;;;;9.30;3.20;;;;;;;-10.64;63.86;98171.78;4954931;29;20126;-69
2021/12/24 05:52:24;;;;;;;8.93;3.47;;;;;;;-10.78;64.16;98160.19;4951498;29;20149;-69
2021/12/24 05:55:16;;;;;;;5.27;2.47;;;;;;;-10.69;63.80;98185.53;4955746;28;20055;-73
2021/12/24 05:57:42;;;;;;;10.53;3.00;;;;;;;-10.86;64.55;98200.69;4969268;28;20047;-74
2021/12/24 06:00:12;;;;;;;7.77;2.90;;;;;;;-10.81;64.49;98195.69;4951747;29;20061;-73
2021/12/24 06:02:47;;;;;;;10.47;3.47;;;;;;;-10.66;64.43;98185.19;4949382;28;20531;-73
2021/12/24 06:05:15;;;;;;;12.50;3.80;;;;;;;-10.69;64.38;98190.81;4953338;29;20051;-67
2021/12/24 06:07:41;;;;;;;8.93;3.13;;;;;;;-10.71;64.60;98175.13;4954493;28;20062;-67
2021/12/24 06:10:07;;;;;;;9.37;3.50;;;;;;;-10.63;63.88;98176.06;4951750;28;20046;-67
2021/12/24 06:12:33;;;;;;;9.50;3.23;;;;;;;-10.75;64.50;98181.78;4952723;29;20138;-67
2021/12/24 06:15:02;;;;;;;10.17;3.67;;;;;;;-10.62;64.32;98167.13;4951289;28;20047;-67
2021/12/24 06:17:29;;;;;;;11.80;3.90;;;;;;;-10.56;64.47;98185.75;4953634;28;20051;-67
2021/12/24 06:19:55;;;;;;;8.90;2.97;;;;;;;-10.59;64.31;98178.16;4953389;28;20130;-67
2021/12/24 06:22:22;;;;;;;8.93;3.80;;;;;;;-10.56;64.62;98175.16;4954515;28;20138;-73
2021/12/24 06:24:48;;;;;;;9.50;3.50;;;;;;;-10.54;64.21;98182.94;4945586;29;20060;-73
2021/12/24 06:27:14;;;;;;;9.57;3.57;;;;;;;-10.42;64.30;98186.78;4958203;29;20101;-74
2021/12/24 06:29:40;;;;;;;8.93;3.63;;;;;;;-10.39;64.15;98169.69;4954894;28;20051;-65
2021/12/24 06:32:07;;;;;;;10.20;3.77;;;;;;;-10.38;63.98;98200.41;4953527;29;20566;-66
2021/12/24 06:34:33;;;;;;;8.68;3.38;;;;;;;-10.35;63.77;98220.41;4952931;29;20047;-67
2021/12/24 06:36:59;;;;;;;14.03;4.33;;;;;;;-10.42;64.05;98197.38;4953709;29;20058;-66
2021/12/24 06:39:27;;;;;;;10.90;4.13;;;;;;;-10.35;63.67;98189.50;4952016;28;20058;-67
2021/12/24 06:41:54;;;;;;;;;;;;;;;-10.45;63.90;98203.00;4947755;29;20048;-67
2021/12/24 06:44:21;;;;;;;11.82;3.33;;;;;;;-10.35;63.86;98193.97;4946470;29;19926;-67
2021/12/24 06:46:47;;;;;;;9.35;3.38;;;;;;;-10.30;63.59;98200.34;4920919;29;20050;-67
2021/12/24 06:49:13;;;;;;;8.60;2.70;;;;;;;-10.37;63.47;98190.69;4953601;29;20097;-67
2021/12/24 06:51:39;;;;;;;12.27;4.13;;;;;;;-10.36;63.58;98200.25;4952435;28;20047;-67
2021/12/24 06:54:06;;;;;;;12.50;4.03;;;;;;;-10.30;63.39;98189.78;4963722;28;20051;-68
2021/12/24 06:56:33;;;;;;;13.10;3.63;;;;;;;-10.32;63.88;98193.59;4950199;28;20047;-67
2021/12/24 06:58:59;;;;;;;8.27;2.78;;;;;;;-10.37;64.01;98211.81;4952270;28;20047;-68
2021/12/24 07:01:25;;;;;;;12.20;4.07;;;;;;;-10.36;64.10;98194.97;4969323;28;20139;-68
2021/12/24 07:03:52;;;;;;;;;;;;;;;-10.38;64.56;98212.81;4967976;28;20078;-67
2021/12/24 07:06:18;;;;;;;11.50;2.93;;;;;;;-10.31;64.19;98195.25;4945415;29;20470;-67
2021/12/24 07:08:44;;;;;;;7.80;2.83;;;;;;;-10.37;64.45;98201.25;4953603;28;20071;-67
2021/12/24 07:11:10;;;;;;;14.70;3.23;;;;;;;-10.39;64.26;98185.56;4954488;28;20512;-69
2021/12/24 07:13:38;;;;;;;10.73;3.47;;;;;;;-10.31;64.03;98225.16;4943527;29;20122;-67
2021/12/24 07:16:04;;;;;;;8.77;3.30;;;;;;;-10.42;64.14;98196.53;4950399;29;20052;-67
2021/12/24 07:18:30;;;;;;;9.50;3.00;;;;;;;-10.47;64.27;98198.91;4950207;29;20054;-67
2021/12/24 07:20:56;;;;;;;11.07;3.03;;;;;;;-10.37;64.08;98194.16;4950282;29;20071;-68
2021/12/24 07:23:22;;;;;;;10.67;3.50;;;;;;;-10.25;63.88;98197.19;4949093;28;20071;-65
2021/12/24 07:25:48;;;;;;;8.23;2.90;;;;;;;-10.47;64.14;98198.91;4953583;28;20050;-68
2021/12/24 07:28:14;;;;;;;9.13;3.23;;;;;;;-10.35;63.88;98193.97;4952816;28;20059;-68
2021/12/24 07:30:42;;;;;;;9.97;3.40;;;;;;;-10.43;64.27;98206.28;4952745;29;20043;-68
2021/12/24 07:33:08;;;;;;;9.40;3.38;;;;;;;-10.38;64.06;98181.91;4940457;28;20103;-67
2021/12/24 07:35:34;;;;;;;10.23;3.97;;;;;;;-10.44;64.34;98191.44;4951319;28;20047;-67
2021/12/24 07:38:00;;;;;;;8.50;3.07;;;;;;;-10.39;64.29;98172.34;4951514;28;20319;-68
2021/12/24 07:40:27;;;;;;;8.33;3.10;;;;;;;-10.30;63.59;98194.25;4953332;29;20055;-67
2021/12/24 07:42:55;;;;;;;10.02;3.25;;;;;;;-10.49;63.54;98235.25;4951319;29;20070;-66
2021/12/24 07:45:22;;;;;;;9.77;2.70;;;;;;;-10.52;64.16;98191.50;4945173;29;20054;-66
2021/12/24 07:48:06;;;;;;;6.53;2.60;;;;;;;-10.50;63.91;98239.69;4944761;28;20043;-66
2021/12/24 07:53:00;;;;;;;10.47;3.80;;;;;;;-10.46;63.19;98233.06;4952864;28;20409;-66
2021/12/24 07:55:26;;;;;;;9.93;3.03;;;;;;;-10.41;63.51;98185.78;4949641;29;20066;-67
2021/12/24 07:57:53;;;;;;;8.30;2.87;;;;;;;-10.30;63.20;98199.53;4951322;28;20049;-66
2021/12/24 08:00:22;;;;;;;9.32;3.47;;;;;;;-10.25;62.98;98200.63;4949770;28;20134;-68
2021/12/24 08:02:50;;;;;;;7.47;2.60;;;;;;;-10.37;62.76;98166.88;4944550;29;20133;-68
2021/12/24 08:05:19;;;;;;;14.38;2.97;;;;;;;-10.32;62.74;98188.31;4947272;28;20420;-67
2021/12/24 08:07:45;;;;;;;9.40;3.10;;;;;;;-10.42;63.18;98192.06;4948704;29;20415;-68
2021/12/24 08:10:11;;;;;;;6.73;2.97;;;;;;;-10.42;63.07;98164.81;4953513;28;20142;-68
2021/12/24 08:12:37;;;;;;;9.07;3.03;;;;;;;-10.40;62.89;98192.69;4948301;28;20039;-67
2021/12/24 08:15:06;;;;;;;13.10;3.80;;;;;;;-10.49;63.15;98198.25;4963396;28;20113;-67
2021/12/24 08:17:32;;;;;;;19.93;8.07;;;;;;;-10.35;62.96;98223.03;4948770;29;20134;-67
2021/12/24 08:19:59;;;;;;;9.97;3.40;;;;;;;-10.33;63.18;98207.81;4952347;28;20141;-66
2021/12/24 08:22:25;;;;;;;7.40;2.72;;;;;;;-10.52;63.59;98137.84;4947860;29;20039;-67
2021/12/24 08:24:52;;;;;;;9.30;3.40;;;;;;;-10.33;62.92;98174.28;4951256;29;20110;-67
2021/12/24 08:27:18;;;;;;;8.27;2.67;;;;;;;-10.38;63.30;98199.63;4931547;29;20086;-67
2021/12/24 08:29:44;;;;;;;16.83;3.73;;;;;;;-10.30;63.38;98189.78;4948684;29;20125;-67
2021/12/24 08:32:10;;;;;;;11.63;3.63;;;;;;;-10.36;63.10;98157.97;4948616;28;20074;-66
2021/12/24 08:34:38;;;;;;;11.43;4.33;;;;;;;-10.37;63.56;98167.72;4940176;28;20110;-67
2021/12/24 08:37:06;;;;;;;7.20;2.67;;;;;;;-10.33;63.41;98149.66;4952530;28;20059;-67
2021/12/24 08:39:32;;;;;;;11.25;3.95;;;;;;;-10.29;63.53;98151.78;4951381;28;20480;-66
2021/12/24 08:41:59;;;;;;;9.38;2.95;;;;;;;-10.29;63.32;98182.69;4943798;29;20058;-67
2021/12/24 08:44:28;;;;;;;10.33;3.13;;;;;;;-10.27;63.47;98143.66;4931537;29;20524;-67
2021/12/24 08:46:54;;;;;;;11.90;3.57;;;;;;;-10.37;63.58;98169.53;4953078;29;20082;-67
2021/12/24 08:49:21;;;;;;;9.57;2.97;;;;;;;-10.46;64.34;98148.47;4951447;29;20054;-67
2021/12/24 08:51:47;;;;;;;10.60;2.90;;;;;;;-10.32;63.87;98185.66;4950520;28;20046;-67
2021/12/24 08:54:14;;;;;;;9.47;3.30;;;;;;;-10.43;64.35;98193.09;4949817;28;20043;-66
2021/12/24 08:56:40;;;;;;;11.07;3.35;;;;;;;-10.35;64.39;98151.66;4952692;29;20047;-66
2021/12/24 08:59:06;;;;;;;13.47;2.87;;;;;;;-10.32;63.73;98144.22;4951626;28;20047;-63
2021/12/24 09:01:32;;;;;;;10.37;3.60;;;;;;;-10.28;64.05;98147.31;4945301;28;20051;-64
2021/12/24 09:03:59;;;;;;;9.60;3.30;;;;;;;-10.32;64.38;98101.06;4953639;28;20086;-67
2021/12/24 09:06:25;;;;;;;9.13;3.80;;;;;;;-10.30;64.13;98133.44;4946222;28;20534;-65
2021/12/24 09:08:51;;;;;;;9.47;3.10;;;;;;;-10.35;64.48;98171.00;4929067;29;20105;-66
2021/12/24 09:11:19;;;;;;;10.37;3.50;;;;;;;-10.34;64.61;98145.38;4951625;28;20142;-65
2021/12/24 09:13:45;;;;;;;;;;;;;;;-10.26;64.13;98184.97;4953177;28;20050;-66
2021/12/24 09:16:11;;;;;;;11.15;3.55;;;;;;;-10.25;64.19;98147.75;4952796;28;19933;-66
2021/12/24 09:18:40;;;;;;;9.67;3.07;;;;;;;-10.16;64.31;98137.09;4970178;28;20130;-66
2021/12/24 09:21:15;;;;;;;14.13;4.33;;;;;;;-10.14;64.02;98133.28;4948440;28;20134;-66
2021/12/24 09:23:43;;;;;;;11.77;3.37;;;;;;;-10.08;63.81;98101.81;4955011;29;20418;-66
2021/12/24 09:26:09;;;;;;;9.80;3.37;;;;;;;-10.08;64.20;98128.28;4946288;29;20551;-66
2021/12/24 09:28:37;;;;;;;10.93;3.60;;;;;;;-10.22;64.32;98122.78;4947699;28;20047;-65
2021/12/24 09:31:02;;;;;;;10.07;3.78;;;;;;;-10.11;64.08;98093.25;4954645;28;20051;-66
2021/12/24 09:33:28;;;;;;;10.13;3.33;;;;;;;-10.04;64.02;98101.28;4952789;28;20150;-67
2021/12/24 09:35:54;;;;;;;9.53;3.73;;;;;;;-10.03;63.99;98102.09;4955446;28;20094;-66
2021/12/24 09:38:20;;;;;;;9.40;3.80;;;;;;;-10.06;64.30;98087.44;4954282;28;20047;-66
2021/12/24 09:40:46;;;;;;;10.07;3.57;;;;;;;-10.01;64.32;98123.88;4947765;28;20054;-66
2021/12/24 09:43:12;;;;;;;12.60;4.50;;;;;;;-10.06;64.52;98098.00;4942919;29;20142;-66
2021/12/24 09:45:40;;;;;;;13.10;4.70;;;;;;;-10.04;64.31;98079.28;4940588;29;20595;-66
2021/12/24 09:48:06;;;;;;;14.32;5.28;;;;;;;-9.98;64.42;98099.72;4942369;28;20047;-66
2021/12/24 09:50:32;;;;;;;11.90;4.40;;;;;;;-9.98;64.14;98089.97;4952768;29;20048;-67
2021/12/24 09:52:58;;;;;;;11.43;4.40;;;;;;;-9.90;64.59;98096.16;4951147;29;20051;-66
2021/12/24 09:55:29;;;;;;;11.37;3.70;;;;;;;-9.92;64.43;98093.69;4955756;28;20078;-66
2021/12/24 09:57:55;;;;;;;11.57;4.40;;;;;;;-9.91;64.35;98090.03;4952355;29;20062;-66
2021/12/24 10:00:24;;;;;;;14.57;4.37;;;;;;;-9.90;64.53;98102.25;4954993;28;20234;-66
2021/12/24 10:02:55;;;;;;;12.90;4.90;;;;;;;-9.89;64.21;98077.44;4952889;29;20086;-67
2021/12/24 10:05:28;;;;;;;12.27;4.40;;;;;;;-9.97;64.82;98104.00;4955618;28;20106;-67
2021/12/24 10:07:59;;;;;;;12.47;4.60;;;;;;;-9.85;64.47;98083.19;4955986;28;20094;-67
2021/12/24 10:10:28;;;;;;;12.67;4.83;;;;;;;-9.90;64.32;98082.94;4964655;28;20047;-67
2021/12/24 10:12:54;;;;;;;13.17;4.80;;;;;;;-9.89;64.26;98077.44;4953963;29;20055;-66
2021/12/24 10:15:20;;;;;;;15.77;4.60;;;;;;;-9.84;64.35;98084.84;4954488;28;20118;-66
2021/12/24 10:17:46;;;;;;;12.33;3.97;;;;;;;-9.89;64.21;98095.97;4945590;28;20086;-66
2021/12/24 10:20:16;;;;;;;13.00;5.10;;;;;;;-9.87;64.13;98099.25;4955578;29;20109;-67
2021/12/24 10:22:44;;;;;;;11.17;4.50;;;;;;;-9.80;63.83;98087.94;4954763;29;20540;-66
2021/12/24 10:25:13;;;;;;;11.13;4.13;;;;;;;-9.88;63.70;98081.72;4949880;28;20453;-67
2021/12/24 10:27:41;;;;;;;14.93;5.00;;;;;;;-9.80;64.13;98087.94;4947883;28;20050;-65
2021/12/24 10:30:17;;;;;;;14.00;4.30;;;;;;;-9.80;63.65;98087.94;4952967;29;20047;-66
2021/12/24 10:32:44;;;;;;;15.20;5.40;;;;;;;-9.84;64.18;98072.41;4959445;28;20406;-66
2021/12/24 10:35:20;;;;;;;14.70;5.87;;;;;;;-9.75;63.89;98098.78;4968760;28;20162;-67
2021/12/24 10:38:12;;;;;;;14.88;4.78;;;;;;;-9.78;63.50;98072.69;4941149;29;20540;-65
2021/12/24 10:40:48;;;;;;;15.63;4.80;;;;;;;-9.76;63.46;98066.19;4953818;29;20071;-66
2021/12/24 10:43:23;;;;;;;14.07;5.07;;;;;;;-9.71;63.91;98082.34;4954169;29;20047;-67
2021/12/24 10:46:07;;;;;;;15.73;5.27;;;;;;;-9.77;63.74;98058.47;4950857;28;20567;-66
2021/12/24 10:48:33;;;;;;;14.83;5.70;;;;;;;-9.78;64.00;98078.78;4953369;28;20114;-67
2021/12/24 10:51:08;;;;;;;13.30;5.47;;;;;;;-9.75;63.71;98074.97;4952469;28;20039;-66
2021/12/24 10:54:02;;;;;;;17.83;6.07;;;;;;;-9.68;63.76;98086.44;4943677;28;20376;-67
2021/12/24 10:56:28;;;;;;;14.93;5.17;;;;;;;-9.73;63.83;98078.22;4952225;29;20047;-66
2021/12/24 10:58:54;;;;;;;13.53;4.93;;;;;;;-9.66;63.71;98081.78;4951785;28;20051;-68
2021/12/24 11:01:20;;;;;;;13.43;5.03;;;;;;;-9.63;63.16;98030.31;4948765;29;20191;-68
2021/12/24 11:03:46;;;;;;;17.87;7.07;;;;;;;-9.58;63.25;98051.75;4948412;29;20134;-67
2021/12/24 11:06:19;;;;;;;14.80;6.07;;;;;;;-9.57;63.17;98087.78;4949190;28;20540;-68
2021/12/24 11:08:53;;;;;;;15.40;5.83;;;;;;;-9.71;63.32;98063.00;4953933;29;20051;-65
2021/12/24 11:11:19;;;;;;;17.37;5.83;;;;;;;-9.56;63.27;98071.72;4952461;28;20051;-65
2021/12/24 11:13:47;;;;;;;14.57;5.37;;;;;;;-9.65;63.39;98067.56;4928829;29;20566;-66
2021/12/24 11:16:15;;;;;;;;;;;;;;;-9.58;63.61;98044.63;4957377;28;20051;-66
2021/12/24 11:18:45;;;;;;;11.73;4.87;;;;;;;-9.56;63.40;98037.31;4972317;28;19926;-66
2021/12/24 11:21:13;;;;;;;15.60;5.23;;;;;;;-9.48;63.10;98054.09;4943547;28;20052;-66
2021/12/24 11:23:41;;;;;;;13.03;5.13;;;;;;;-9.49;62.94;98037.38;4952200;28;20503;-64
2021/12/24 11:26:09;;;;;;;15.07;5.43;;;;;;;-9.45;63.20;98045.75;4951207;28;20106;-65
2021/12/24 11:28:37;;;;;;;13.17;5.20;;;;;;;-9.57;63.50;98033.03;4949242;28;20107;-66
2021/12/24 11:31:04;;;;;;;15.50;5.85;;;;;;;-9.60;63.54;98046.63;4952015;29;20043;-67
2021/12/24 11:33:31;;;;;;;;;;;;;;;-9.51;63.28;98049.19;4952575;29;20043;-66
2021/12/24 11:35:59;;;;;;;15.43;6.10;;;;;;;-9.48;63.30;98054.09;4947866;28;19926;-67
2021/12/24 11:38:28;;;;;;;16.00;5.77;;;;;;;-9.50;63.61;98038.38;4945431;28;20110;-65
2021/12/24 11:40:57;;;;;;;17.87;5.30;;;;;;;-9.44;63.37;98037.66;4952074;28;20043;-68
2021/12/24 11:43:27;;;;;;;18.80;6.13;;;;;;;-9.46;63.48;98026.41;4954717;28;20126;-66
2021/12/24 11:45:56;;;;;;;13.93;5.03;;;;;;;-9.47;63.07;98024.75;4952005;29;20055;-66
2021/12/24 11:48:22;;;;;;;13.23;5.67;;;;;;;-9.46;63.57;98030.91;4953349;29;20074;-66
2021/12/24 11:50:48;;;;;;;13.73;5.77;;;;;;;-9.47;63.42;98029.25;4952956;29;20397;-66
2021/12/24 11:53:16;;;;;;;19.47;6.23;;;;;;;-9.44;63.25;98031.53;4945084;28;20056;-66
2021/12/24 11:55:48;;;;;;;13.40;4.67;;;;;;;-9.57;63.57;98019.78;4945153;29;20066;-67
2021/12/24 11:58:18;;;;;;;14.30;4.57;;;;;;;-9.54;63.55;98022.06;4953249;28;20054;-67
2021/12/24 12:00:46;;;;;;;13.87;4.77;;;;;;;-9.45;63.32;98035.97;4951028;28;20298;-67
2021/12/24 12:03:30;;;;;;;16.67;4.60;;;;;;;-9.48;63.42;98040.84;4944755;28;20533;-67
2021/12/24 12:05:57;;;;;;;15.67;5.30;;;;;;;-9.41;63.51;98039.91;4928890;29;20134;-67
2021/12/24 12:08:37;;;;;;;14.50;5.00;;;;;;;-9.45;63.50;98056.34;4950747;29;20515;-67
2021/12/24 12:11:06;;;;;;;12.33;4.83;;;;;;;-9.42;63.34;98026.84;4951376;29;20042;-66
2021/12/24 12:13:42;;;;;;;16.23;5.23;;;;;;;-9.45;63.16;98032.53;4947056;28;20063;-66
2021/12/24 12:16:10;;;;;;;17.73;5.07;;;;;;;-9.52;63.48;98052.81;4935397;29;20047;-67
2021/12/24 12:18:50;;;;;;;14.97;5.43;;;;;;;-9.52;63.43;98024.53;4948606;28;20307;-66
2021/12/24 12:21:21;;;;;;;14.00;5.43;;;;;;;-9.45;63.28;98025.38;4951455;28;20070;-66
2021/12/24 12:26:41;;;;;;;15.00;5.60;;;;;;;-9.53;63.47;98030.81;4955366;28;20044;-71
2021/12/24 12:29:25;;;;;;;14.63;5.33;;;;;;;-9.54;63.30;98032.63;4946449;28;20047;-69
2021/12/24 12:31:55;;;;;;;15.10;6.03;;;;;;;-9.57;63.45;98038.31;4946763;28;20064;-65
2021/12/24 12:34:52;;;;;;;13.87;5.80;;;;;;;-9.49;63.06;98018.03;4944821;28;20059;-67
2021/12/24 12:37:21;;;;;;;12.83;4.50;;;;;;;-9.55;63.40;98046.06;4937773;28;20376;-65
2021/12/24 12:39:50;;;;;;;15.10;5.07;;;;;;;-9.62;63.67;98040.72;4943199;28;20052;-67
2021/12/24 12:42:18;;;;;;;16.37;5.80;;;;;;;-9.66;63.38;98034.16;4948587;28;20138;-67
2021/12/24 12:44:49;;;;;;;15.52;5.88;;;;;;;-9.68;63.78;98033.50;4937282;29;20054;-67
2021/12/24 12:47:17;;;;;;;16.80;6.53;;;;;;;-9.59;63.88;98040.34;4949990;29;20075;-68
2021/12/24 12:49:44;;;;;;;17.10;5.27;;;;;;;-9.59;63.53;98019.16;4937248;28;20151;-69
2021/12/24 12:52:20;;;;;;;18.85;5.28;;;;;;;-9.63;63.71;98033.78;4949035;28;20051;-68
2021/12/24 12:54:48;;;;;;;15.17;5.50;;;;;;;-9.65;63.53;98038.44;4967089;28;20071;-69
2021/12/24 12:57:17;;;;;;;;;;;;;;;-9.65;63.88;98019.91;4955765;29;20887;-68
2021/12/24 13:00:32;;;;;;;11.43;5.17;;;;;;;-9.71;63.66;98013.56;4955101;29;19981;-68
2021/12/24 13:03:17;;;;;;;17.70;5.85;;;;;;;-9.71;63.67;98025.94;4897569;29;20048;-69
2021/12/24 13:06:08;;;;;;;12.77;5.37;;;;;;;-9.72;63.92;98033.09;4892540;29;20059;-69
2021/12/24 13:08:38;;;;;;;13.53;5.67;;;;;;;-9.67;63.76;98029.88;4927261;29;20070;-69
2021/12/24 13:11:06;;;;;;;14.30;5.57;;;;;;;-9.75;63.82;98019.41;4948198;29;20508;-69
2021/12/24 13:13:44;;;;;;;14.97;5.73;;;;;;;-9.70;63.99;98030.22;4943888;28;20146;-70
2021/12/24 13:16:16;;;;;;;13.93;5.00;;;;;;;-9.76;64.00;98023.06;4938481;29;20055;-69
2021/12/24 13:18:52;;;;;;;21.40;6.33;;;;;;;-9.71;63.71;98007.44;4970756;28;20508;-69